createdAt,value
2019-04-20T00:00:30.541Z,97.6
2019-04-20T00:01:32.236Z,97.6
2019-04-20T00:02:29.621Z,96.6
2019-04-20T00:03:35.624Z,97.7
2019-04-20T00:04:35.267Z,98.0
2019-04-20T00:05:31.312Z,97.1
2019-04-20T00:06:41.701Z,96.9
2019-04-20T00:07:35.666Z,96.7
2019-04-20T00:08:36.514Z,97.0
2019-04-20T00:09:36.977Z,97.0
2019-04-20T00:10:45.237Z,96.7
2019-04-20T00:11:48.408Z,97.6
2019-04-20T00:12:52.077Z,97.7
2019-04-20T00:13:49.871Z,97.6
2019-04-20T00:14:39.106Z,97.5
2019-04-20T00:15:38.927Z,98.1
2019-04-20T00:16:39.898Z,98.4
2019-04-20T00:17:45.902Z,97.6
2019-04-20T00:18:47.958Z,97.6
2019-04-20T00:19:47.009Z,97.7
2019-04-20T00:20:42.226Z,98.0
2019-04-20T00:21:46.985Z,97.8
2019-04-20T00:22:48.707Z,97.8
2019-04-20T00:23:47.731Z,96.9
2019-04-20T00:24:45.417Z,97.8
2019-04-20T00:25:54.931Z,98.1
2019-04-20T00:27:19.282Z,98.8
2019-04-20T00:28:04.752Z,98.0
2019-04-20T00:29:07.007Z,97.7
2019-04-20T00:30:04.435Z,97.9
2019-04-20T00:31:07.227Z,97.6
2019-04-20T00:32:05.392Z,98.3
2019-04-20T00:33:01.802Z,98.8
2019-04-20T00:34:02.777Z,97.8
2019-04-20T00:34:53.952Z,98.4
2019-04-20T00:35:54.847Z,97.5
2019-04-20T00:36:56.032Z,98.0
2019-04-20T00:37:55.398Z,99.6
2019-04-20T00:38:59.753Z,98.3
2019-04-20T00:39:57.787Z,97.8
2019-04-20T00:41:02.729Z,98.0
2019-04-20T00:42:03.483Z,98.6
2019-04-20T00:43:00.360Z,97.8
2019-04-20T00:44:06.893Z,98.8
2019-04-20T00:45:08.397Z,98.4
2019-04-20T00:46:11.804Z,97.7
2019-04-20T00:47:12.027Z,97.6
2019-04-20T00:48:16.855Z,98.3
2019-04-20T00:49:20.641Z,98.3
2019-04-20T00:50:27.022Z,97.4
2019-04-20T00:51:27.869Z,97.7
2019-04-20T00:53:19.560Z,97.7
2019-04-20T00:54:09.443Z,98.5
2019-04-20T00:55:08.904Z,98.4
2019-04-20T00:56:09.997Z,97.9
2019-04-20T00:57:20.477Z,97.5
2019-04-20T00:58:21.213Z,98.5
2019-04-20T00:59:26.036Z,98.4
2019-04-20T01:00:32.446Z,97.9
2019-04-20T01:01:37.489Z,97.7
2019-04-20T01:02:30.172Z,98.3
2019-04-20T01:03:36.921Z,98.2
2019-04-20T01:04:37.816Z,97.8
2019-04-20T01:05:38.855Z,97.7
2019-04-20T01:06:34.098Z,98.0
2019-04-20T01:07:30.822Z,97.9
2019-04-20T01:08:19.619Z,98.4
2019-04-20T01:09:20.422Z,98.2
2019-04-20T01:10:21.607Z,98.2
2019-04-20T01:11:26.993Z,97.7
2019-04-20T01:12:26.311Z,98.1
2019-04-20T01:13:25.143Z,97.8
2019-04-20T01:14:37.554Z,97.9
2019-04-20T01:15:36.414Z,98.1
2019-04-20T01:16:36.822Z,98.9
2019-04-20T01:17:26.723Z,98.2
2019-04-20T01:18:27.412Z,98.4
2019-04-20T01:19:28.094Z,98.0
2019-04-20T01:20:28.781Z,98.6
2019-04-20T01:21:31.773Z,98.1
2019-04-20T01:22:40.289Z,98.5
2019-04-20T01:23:40.180Z,98.2
2019-04-20T01:24:37.112Z,98.0
2019-04-20T01:25:37.698Z,97.9
2019-04-20T01:26:41.913Z,97.5
2019-04-20T01:27:49.735Z,98.1
2019-04-20T01:28:51.227Z,97.2
2019-04-20T01:29:43.840Z,98.8
2019-04-20T01:30:43.152Z,98.5
2019-04-20T01:31:54.567Z,98.4
2019-04-20T01:32:55.149Z,98.4
2019-04-20T01:33:50.633Z,98.2
2019-04-20T01:34:53.311Z,98.1
2019-04-20T01:35:56.930Z,98.7
2019-04-20T01:36:55.693Z,98.2
2019-04-20T01:38:02.663Z,97.8
2019-04-20T01:38:56.774Z,98.5
2019-04-20T01:39:50.208Z,98.6
2019-04-20T01:40:44.490Z,98.1
2019-04-20T01:41:45.446Z,97.9
2019-04-20T01:42:46.736Z,97.8
2019-04-20T01:43:46.375Z,98.1
2019-04-20T01:44:50.298Z,98.0
2019-04-20T01:45:52.317Z,98.1
2019-04-20T01:46:53.291Z,98.4
2019-04-20T01:47:52.742Z,98.2
2019-04-20T01:48:50.613Z,97.8
2019-04-20T01:49:57.559Z,97.8
2019-04-20T01:50:59.625Z,98.1
2019-04-20T01:52:05.784Z,98.4
2019-04-20T01:53:03.492Z,98.3
2019-04-20T01:54:06.629Z,98.7
2019-04-20T01:55:11.414Z,98.7
2019-04-20T01:56:15.416Z,97.8
2019-04-20T01:57:04.768Z,98.0
2019-04-20T01:58:12.406Z,98.1
2019-04-20T01:59:10.647Z,99.4
2019-04-20T02:00:08.490Z,98.0
2019-04-20T02:00:59.511Z,97.9
2019-04-20T02:02:04.627Z,98.5
2019-04-20T02:03:02.375Z,99.2
2019-04-20T02:04:02.795Z,99.6
2019-04-20T02:05:11.320Z,98.1
2019-04-20T02:06:06.364Z,98.3
2019-04-20T02:07:04.943Z,98.3
2019-04-20T02:08:08.740Z,97.7
2019-04-20T02:09:09.511Z,97.6
2019-04-20T02:10:08.332Z,98.3
2019-04-20T02:11:07.400Z,98.4
2019-04-20T02:12:12.157Z,98.4
2019-04-20T02:13:07.596Z,98.5
2019-04-20T02:14:10.246Z,98.1
2019-04-20T02:15:17.133Z,96.0
2019-04-20T02:16:15.836Z,96.3
2019-04-20T02:17:20.008Z,96.4
2019-04-20T02:18:22.686Z,97.1
2019-04-20T02:19:27.841Z,96.8
2019-04-20T02:20:35.907Z,97.8
2019-04-20T02:21:27.652Z,97.7
2019-04-20T02:22:30.604Z,97.3
2019-04-20T02:23:25.318Z,96.9
2019-04-20T02:24:15.728Z,96.8
2019-04-20T02:25:14.309Z,97.5
2019-04-20T02:26:16.004Z,95.9
2019-04-20T02:27:19.718Z,95.7
2019-04-20T02:28:36.177Z,95.5
2019-04-20T02:29:39.897Z,94.3
2019-04-20T02:30:57.962Z,94.1
2019-04-20T02:32:05.087Z,95.4
2019-04-20T02:32:55.540Z,96.4
2019-04-20T02:33:58.071Z,96.4
2019-04-20T02:34:54.755Z,96.8
2019-04-20T02:36:04.845Z,94.8
2019-04-20T02:37:14.357Z,95.6
2019-04-20T02:39:21.906Z,97.2
2019-04-20T02:40:00.911Z,96.6
2019-04-20T02:41:09.858Z,96.1
2019-04-20T02:42:14.369Z,96.6
2019-04-20T02:43:25.018Z,96.1
2019-04-20T02:44:15.933Z,96.4
2019-04-20T02:45:18.646Z,96.5
2019-04-20T02:46:06.768Z,96.7
2019-04-20T02:47:14.396Z,97.3
2019-04-20T02:48:07.986Z,96.8
2019-04-20T02:50:19.190Z,96.8
2019-04-20T02:51:13.284Z,96.4
2019-04-20T02:52:22.610Z,97.2
2019-04-20T02:53:23.614Z,97.7
2019-04-20T02:54:40.828Z,97.0
2019-04-20T02:55:26.371Z,97.4
2019-04-20T02:56:32.438Z,97.6
2019-04-20T02:57:33.569Z,97.6
2019-04-20T02:58:29.088Z,97.9
2019-04-20T03:00:28.797Z,97.8
2019-04-20T03:01:23.314Z,97.7
2019-04-20T03:02:18.423Z,98.0
2019-04-20T03:03:15.882Z,98.4
2019-04-20T03:04:05.610Z,98.5
2019-04-20T03:05:16.217Z,98.3
2019-04-20T03:06:18.526Z,99.2
2019-04-20T03:07:15.211Z,98.4
2019-04-20T03:08:22.139Z,98.7
2019-04-20T03:09:27.221Z,98.6
2019-04-20T03:10:36.313Z,99.1
2019-04-20T03:11:37.867Z,97.4
2019-04-20T03:12:35.851Z,98.5
2019-04-20T03:13:31.995Z,98.6
2019-04-20T03:14:27.000Z,98.2
2019-04-20T03:15:32.906Z,98.6
2019-04-20T03:16:32.134Z,98.4
2019-04-20T03:17:36.506Z,98.4
2019-04-20T03:18:32.523Z,98.5
2019-04-20T03:19:28.444Z,98.5
2019-04-20T03:20:36.225Z,98.4
2019-04-20T03:21:38.030Z,99.7
2019-04-20T03:23:02.401Z,98.5
2019-04-20T03:23:47.123Z,98.5
2019-04-20T03:24:47.002Z,98.3
2019-04-20T03:25:45.074Z,98.3
2019-04-20T03:26:37.894Z,98.0
2019-04-20T03:27:36.447Z,98.6
2019-04-20T03:28:38.818Z,98.2
2019-04-20T03:29:43.870Z,98.2
2019-04-20T03:34:19.394Z,98.0
2019-04-20T03:36:00.354Z,97.9
2019-04-20T03:37:00.635Z,98.2
2019-04-20T03:38:00.152Z,97.7
2019-04-20T03:38:53.608Z,98.0
2019-04-20T03:39:47.589Z,98.1
2019-04-20T03:40:48.377Z,98.1
2019-04-20T03:41:43.539Z,97.8
2019-04-20T03:42:38.033Z,97.7
2019-04-20T03:43:39.021Z,97.1
2019-04-20T03:44:48.163Z,98.0
2019-04-20T03:45:48.628Z,98.0
2019-04-20T03:46:47.707Z,97.7
2019-04-20T03:47:54.379Z,97.6
2019-04-20T03:49:01.361Z,98.0
2019-04-20T03:50:06.082Z,97.6
2019-04-20T03:51:04.593Z,97.7
2019-04-20T03:52:02.278Z,97.7
2019-04-20T03:53:08.695Z,97.8
2019-04-20T03:54:05.913Z,97.9
2019-04-20T03:55:09.523Z,98.0
2019-04-20T03:56:02.209Z,98.1
2019-04-20T03:57:13.732Z,97.9
2019-04-20T03:58:08.975Z,98.2
2019-04-20T03:59:07.723Z,98.0
2019-04-20T04:00:10.161Z,97.1
2019-04-20T04:01:14.687Z,97.6
2019-04-20T04:03:26.205Z,97.7
2019-04-20T04:04:15.237Z,97.9
2019-04-20T04:05:16.478Z,97.6
2019-04-20T04:06:05.434Z,97.6
2019-04-20T04:07:01.001Z,97.9
2019-04-20T04:08:09.459Z,97.9
2019-04-20T04:09:14.999Z,97.7
2019-04-20T04:10:14.404Z,97.8
2019-04-20T04:11:16.261Z,98.0
2019-04-20T04:12:12.217Z,97.4
2019-04-20T04:13:01.053Z,97.9
2019-04-20T04:14:01.125Z,97.8
2019-04-20T04:15:02.280Z,97.6
2019-04-20T04:16:06.694Z,97.7
2019-04-20T04:17:04.618Z,97.7
2019-04-20T04:18:11.089Z,97.6
2019-04-20T04:19:12.814Z,97.6
2019-04-20T04:20:11.646Z,97.3
2019-04-20T04:21:12.866Z,97.7
2019-04-20T04:22:18.048Z,97.7
2019-04-20T04:23:27.042Z,97.7
2019-04-20T04:24:22.868Z,97.4
2019-04-20T04:25:21.059Z,98.1
2019-04-20T04:26:26.256Z,97.7
2019-04-20T04:27:32.625Z,97.7
2019-04-20T04:28:29.955Z,97.7
2019-04-20T04:29:33.410Z,97.8
2019-04-20T04:30:25.318Z,97.6
2019-04-20T04:31:33.879Z,98.4
2019-04-20T04:33:00.442Z,97.5
2019-04-20T04:34:34.691Z,97.6
2019-04-20T04:35:30.215Z,97.8
2019-04-20T04:36:36.048Z,97.8
2019-04-20T04:37:38.739Z,97.1
2019-04-20T04:38:42.453Z,97.7
2019-04-20T04:39:46.674Z,97.4
2019-04-20T04:40:49.700Z,97.8
2019-04-20T04:41:43.967Z,97.6
2019-04-20T04:42:48.264Z,97.6
2019-04-20T04:43:44.433Z,97.5
2019-04-20T04:44:42.226Z,97.7
2019-04-20T04:45:30.087Z,97.3
2019-04-20T04:46:29.209Z,97.3
2019-04-20T04:47:30.480Z,98.3
2019-04-20T04:48:35.717Z,97.7
2019-04-20T04:49:34.883Z,97.5
2019-04-20T04:50:33.132Z,98.3
2019-04-20T04:51:42.436Z,98.1
2019-04-20T04:52:42.913Z,97.9
2019-04-20T04:53:45.197Z,98.3
2019-04-20T04:54:46.191Z,98.0
2019-04-20T04:55:45.806Z,97.2
2019-04-20T04:56:37.616Z,97.5
2019-04-20T04:57:37.257Z,97.5
2019-04-20T04:58:38.494Z,97.6
2019-04-20T04:59:38.640Z,97.6
2019-04-20T05:00:40.718Z,97.3
2019-04-20T05:01:40.506Z,97.0
2019-04-20T05:02:48.841Z,97.5
2019-04-20T05:04:09.952Z,97.7
2019-04-20T05:05:07.070Z,97.4
2019-04-20T05:06:03.252Z,97.6
2019-04-20T05:06:58.408Z,98.1
2019-04-20T05:08:01.905Z,98.1
2019-04-20T05:08:53.381Z,98.1
2019-04-20T05:09:48.703Z,97.9
2019-04-20T05:10:49.979Z,98.3
2019-04-20T05:11:59.764Z,97.9
2019-04-20T05:12:52.872Z,98.2
2019-04-20T05:13:58.314Z,98.3
2019-04-20T05:15:02.286Z,97.6
2019-04-20T05:16:10.961Z,98.3
2019-04-20T05:17:07.351Z,98.4
2019-04-20T05:18:11.932Z,97.7
2019-04-20T05:19:18.964Z,98.2
2019-04-20T05:20:18.063Z,98.0
2019-04-20T05:21:23.028Z,98.6
2019-04-20T05:22:21.857Z,98.4
2019-04-20T05:23:16.266Z,98.8
2019-04-20T05:24:17.901Z,98.2
2019-04-20T05:25:22.317Z,98.6
2019-04-20T05:26:25.817Z,98.5
2019-04-20T05:27:27.486Z,100.0
2019-04-20T05:28:20.685Z,98.9
2019-04-20T05:29:14.497Z,99.2
2019-04-20T05:30:08.116Z,99.1
2019-04-20T05:31:11.375Z,99.3
2019-04-20T05:32:16.131Z,99.1
2019-04-20T05:33:25.482Z,98.2
2019-04-20T05:34:30.874Z,99.4
2019-04-20T05:35:30.941Z,99.2
2019-04-20T05:36:38.480Z,98.9
2019-04-20T05:37:41.425Z,99.5
2019-04-20T05:38:41.775Z,99.7
2019-04-20T05:39:38.213Z,99.9
2019-04-20T05:40:38.335Z,99.1
2019-04-20T05:41:38.319Z,98.7
2019-04-20T05:42:44.256Z,98.5
2019-04-20T05:43:36.258Z,98.7
2019-04-20T05:44:45.571Z,99.5
2019-04-20T05:45:39.903Z,98.7
2019-04-20T05:46:47.910Z,98.7
2019-04-20T05:47:48.429Z,97.9
2019-04-20T05:48:50.873Z,98.0
2019-04-20T05:49:46.821Z,98.2
2019-04-20T05:50:52.155Z,98.9
2019-04-20T05:51:47.613Z,99.3
2019-04-20T05:52:59.854Z,100.0
2019-04-20T05:53:53.273Z,98.8
2019-04-20T05:54:57.672Z,98.5
2019-04-20T05:55:54.689Z,99.0
2019-04-20T05:56:58.877Z,99.1
2019-04-20T05:58:02.015Z,98.6
2019-04-20T05:58:56.955Z,97.8
2019-04-20T06:00:07.139Z,99.2
2019-04-20T06:01:03.477Z,98.5
2019-04-20T06:02:03.702Z,98.3
2019-04-20T06:02:59.065Z,98.4
2019-04-20T06:04:03.012Z,98.6
2019-04-20T06:05:12.980Z,99.2
2019-04-20T06:06:21.797Z,98.7
2019-04-20T06:07:08.821Z,98.1
2019-04-20T06:08:05.498Z,98.0
2019-04-20T06:09:11.978Z,99.0
2019-04-20T06:10:18.936Z,96.6
2019-04-20T06:11:09.415Z,96.3
2019-04-20T06:12:28.511Z,94.8
2019-04-20T06:13:11.209Z,94.3
2019-04-20T06:14:03.708Z,94.0
2019-04-20T06:15:09.483Z,94.9
2019-04-20T06:16:13.850Z,96.6
2019-04-20T06:17:17.035Z,96.7
2019-04-20T06:18:15.061Z,96.9
2019-04-20T06:19:27.041Z,95.4
2019-04-20T06:20:20.053Z,94.0
2019-04-20T06:21:25.269Z,95.5
2019-04-20T06:22:28.580Z,95.7
2019-04-20T06:23:27.261Z,95.9
2019-04-20T06:24:29.238Z,95.6
2019-04-20T06:25:39.493Z,95.2
2019-04-20T06:26:37.017Z,93.5
2019-04-20T06:27:29.310Z,92.5
2019-04-20T06:28:22.202Z,90.3
2019-04-20T06:29:22.305Z,89.5
2019-04-20T06:30:26.086Z,91.2
2019-04-20T06:31:31.089Z,92.1
2019-04-20T06:32:33.117Z,92.4
2019-04-20T06:33:50.249Z,92.1
2019-04-20T06:35:55.607Z,82.9
2019-04-20T06:36:40.009Z,84.6
2019-04-20T06:37:36.226Z,85.2
2019-04-20T06:39:41.687Z,80.1
2019-04-20T06:42:00.149Z,77.4
2019-04-20T06:42:39.673Z,75.5
2019-04-20T06:43:45.802Z,75.0
2019-04-20T06:44:41.414Z,74.3
2019-04-20T06:45:54.540Z,73.6
2019-04-20T06:46:52.436Z,72.5
2019-04-20T06:47:51.773Z,72.4
2019-04-20T06:48:52.251Z,71.7
2019-04-20T06:49:48.696Z,72.0
2019-04-20T06:50:49.492Z,71.8
2019-04-20T06:51:53.201Z,72.0
2019-04-20T06:52:49.186Z,72.0
2019-04-20T06:53:51.341Z,70.1
2019-04-20T06:54:48.328Z,70.6
2019-04-20T06:55:59.210Z,70.1
2019-04-20T06:57:55.099Z,68.5
2019-04-20T06:59:03.677Z,67.7
2019-04-20T07:00:05.819Z,68.9
2019-04-20T07:01:03.860Z,70.2
2019-04-20T07:02:11.954Z,70.0
2019-04-20T07:03:01.776Z,69.2
2019-04-20T07:04:31.767Z,67.2
2019-04-20T07:05:10.015Z,67.2
2019-04-20T07:06:26.716Z,68.6
2019-04-20T07:07:11.406Z,65.7
2019-04-20T07:08:29.024Z,64.5
2019-04-20T07:09:16.990Z,65.6
2019-04-20T07:11:18.743Z,65.9
2019-04-20T07:12:12.499Z,65.0
2019-04-20T07:13:07.953Z,63.9
2019-04-20T07:14:04.066Z,64.0
2019-04-20T07:15:14.962Z,62.6
2019-04-20T07:16:18.462Z,62.7
2019-04-20T07:17:26.931Z,63.1
2019-04-20T07:18:18.561Z,63.0
2019-04-20T07:19:18.993Z,62.7
2019-04-20T07:20:15.911Z,63.4
2019-04-20T07:21:23.115Z,62.6
2019-04-20T07:22:31.405Z,61.8
2019-04-20T07:23:26.495Z,61.1
2019-04-20T07:24:25.175Z,60.5
2019-04-20T07:25:29.284Z,61.0
2019-04-20T07:26:31.553Z,63.0
2019-04-20T07:27:22.923Z,62.3
2019-04-20T07:28:32.775Z,59.5
2019-04-20T07:29:36.923Z,58.9
2019-04-20T07:30:29.639Z,58.9
2019-04-20T07:31:35.239Z,59.7
2019-04-20T07:32:27.074Z,59.1
2019-04-20T07:33:32.264Z,59.2
2019-04-20T07:34:36.217Z,57.8
2019-04-20T07:35:30.566Z,58.1
2019-04-20T07:36:37.746Z,58.3
2019-04-20T07:38:41.798Z,58.1
2019-04-20T07:39:40.695Z,57.8
2019-04-20T07:40:38.157Z,58.7
2019-04-20T07:42:00.655Z,60.2
2019-04-20T07:42:47.921Z,59.9
2019-04-20T07:43:57.468Z,59.0
2019-04-20T07:44:49.400Z,56.7
2019-04-20T07:45:36.221Z,56.7
2019-04-20T07:48:07.418Z,56.0
2019-04-20T07:48:48.924Z,56.5
2019-04-20T07:49:45.785Z,56.0
2019-04-20T07:50:40.776Z,56.8
2019-04-20T07:51:35.492Z,56.8
2019-04-20T07:52:43.874Z,56.2
2019-04-20T07:53:50.207Z,54.8
2019-04-20T07:55:12.125Z,55.6
2019-04-20T07:55:53.901Z,55.8
2019-04-20T07:56:53.827Z,55.8
2019-04-20T07:57:51.320Z,57.9
2019-04-20T07:58:47.482Z,56.6
2019-04-20T07:59:56.227Z,55.8
2019-04-20T08:01:10.331Z,56.8
2019-04-20T08:02:09.118Z,55.5
2019-04-20T08:03:03.565Z,54.9
2019-04-20T08:04:01.947Z,53.1
2019-04-20T08:04:56.261Z,52.9
2019-04-20T08:05:51.222Z,51.3
2019-04-20T08:06:48.737Z,51.2
2019-04-20T08:07:53.375Z,50.4
2019-04-20T08:08:57.158Z,50.1
2019-04-20T08:09:53.269Z,49.3
2019-04-20T08:11:00.739Z,49.4
2019-04-20T08:12:11.364Z,49.5
2019-04-20T08:13:09.350Z,49.6
2019-04-20T08:14:12.994Z,50.1
2019-04-20T08:15:11.114Z,51.0
2019-04-20T08:16:06.369Z,50.1
2019-04-20T08:17:26.808Z,48.9
2019-04-20T08:18:13.617Z,49.6
2019-04-20T08:19:13.259Z,49.3
2019-04-20T08:20:16.160Z,48.9
2019-04-20T08:21:16.498Z,49.4
2019-04-20T08:22:24.617Z,49.3
2019-04-20T08:23:17.561Z,49.0
2019-04-20T08:24:15.952Z,49.3
2019-04-20T08:25:08.314Z,49.7
2019-04-20T08:26:05.505Z,49.0
2019-04-20T08:27:04.281Z,48.7
2019-04-20T08:27:59.774Z,49.5
2019-04-20T08:29:09.205Z,48.4
2019-04-20T08:30:20.757Z,48.0
2019-04-20T08:31:18.203Z,47.5
2019-04-20T08:32:24.995Z,47.9
2019-04-20T08:33:24.473Z,48.5
2019-04-20T08:34:31.333Z,48.2
2019-04-20T08:35:31.943Z,48.3
2019-04-20T08:36:26.871Z,47.9
2019-04-20T08:37:26.839Z,47.7
2019-04-20T08:38:58.622Z,46.9
2019-04-20T08:40:36.094Z,48.3
2019-04-20T08:41:28.603Z,48.2
2019-04-20T08:42:39.926Z,49.2
2019-04-20T08:43:47.208Z,48.8
2019-04-20T08:44:53.813Z,50.0
2019-04-20T08:45:42.035Z,48.2
2019-04-20T08:46:38.662Z,46.8
2019-04-20T08:47:44.511Z,46.5
2019-04-20T08:48:43.490Z,46.5
2019-04-20T08:49:41.500Z,46.3
2019-04-20T08:50:44.085Z,45.1
2019-04-20T08:51:50.094Z,45.0
2019-04-20T08:53:03.773Z,45.2
2019-04-20T08:53:45.091Z,44.1
2019-04-20T08:54:37.947Z,44.5
2019-04-20T08:55:41.560Z,43.9
2019-04-20T08:56:36.083Z,43.3
2019-04-20T08:57:27.080Z,43.0
2019-04-20T08:58:27.398Z,44.6
2019-04-20T08:59:28.914Z,43.8
2019-04-20T09:00:33.343Z,43.7
2019-04-20T09:01:32.718Z,43.0
2019-04-20T09:02:30.523Z,43.3
2019-04-20T09:03:44.112Z,43.0
2019-04-20T09:04:37.439Z,42.1
2019-04-20T09:05:44.936Z,42.9
2019-04-20T09:06:45.665Z,42.5
2019-04-20T09:07:47.800Z,41.1
2019-04-20T09:08:46.582Z,41.6
2019-04-20T09:09:52.742Z,40.7
2019-04-20T09:10:56.508Z,39.7
2019-04-20T09:11:54.362Z,40.4
2019-04-20T09:12:53.201Z,40.1
2019-04-20T09:13:45.497Z,39.8
2019-04-20T09:14:40.267Z,40.8
2019-04-20T09:15:40.404Z,41.1
2019-04-20T09:16:47.560Z,41.1
2019-04-20T09:17:47.434Z,40.6
2019-04-20T09:18:50.366Z,40.9
2019-04-20T09:19:50.839Z,41.0
2019-04-20T09:20:53.792Z,40.7
2019-04-20T09:21:51.048Z,39.6
2019-04-20T09:22:58.289Z,39.4
2019-04-20T09:24:10.094Z,39.9
2019-04-20T09:25:13.399Z,39.7
2019-04-20T09:26:10.096Z,38.9
2019-04-20T09:27:04.547Z,38.8
2019-04-20T09:27:56.326Z,38.3
2019-04-20T09:29:09.564Z,38.3
2019-04-20T09:30:04.577Z,38.2
2019-04-20T09:31:09.226Z,37.9
2019-04-20T09:32:11.440Z,38.3
2019-04-20T09:33:15.627Z,39.2
2019-04-20T09:34:14.427Z,38.1
2019-04-20T09:35:14.672Z,38.2
2019-04-20T09:36:10.011Z,37.9
2019-04-20T09:37:22.385Z,38.0
2019-04-20T09:38:15.532Z,38.2
2019-04-20T09:39:14.068Z,38.2
2019-04-20T09:40:16.331Z,38.0
2019-04-20T09:41:27.636Z,38.2
2019-04-20T09:42:01.728Z,38.0
2019-04-20T09:43:02.350Z,38.1
2019-04-20T09:44:02.734Z,37.8
2019-04-20T09:45:05.847Z,37.8
2019-04-20T09:46:08.098Z,38.0
2019-04-20T09:47:06.813Z,37.5
2019-04-20T09:48:11.595Z,37.8
2019-04-20T09:49:15.697Z,37.4
2019-04-20T09:50:22.743Z,37.4
2019-04-20T09:51:25.818Z,36.9
2019-04-20T09:52:21.163Z,37.1
2019-04-20T09:53:24.827Z,36.6
2019-04-20T09:54:26.784Z,36.9
2019-04-20T09:55:24.576Z,37.1
2019-04-20T09:56:26.960Z,36.7
2019-04-20T09:57:32.160Z,37.6
2019-04-20T09:58:25.743Z,36.9
2019-04-20T09:59:33.579Z,37.2
2019-04-20T10:00:29.127Z,36.2
2019-04-20T10:01:25.987Z,36.6
2019-04-20T10:02:23.140Z,37.0
2019-04-20T10:03:16.563Z,36.3
2019-04-20T10:04:17.513Z,36.8
2019-04-20T10:05:17.695Z,36.6
2019-04-20T10:06:23.056Z,36.9
2019-04-20T10:07:23.513Z,37.7
2019-04-20T10:08:19.685Z,36.7
2019-04-20T10:09:26.873Z,36.2
2019-04-20T10:10:31.129Z,36.9
2019-04-20T10:11:21.604Z,37.0
2019-04-20T10:12:22.321Z,36.5
2019-04-20T10:13:23.048Z,35.7
2019-04-20T10:14:24.816Z,35.1
2019-04-20T10:15:27.661Z,35.0
2019-04-20T10:16:26.588Z,35.8
2019-04-20T10:17:31.325Z,36.2
2019-04-20T10:18:28.126Z,36.3
2019-04-20T10:19:32.473Z,34.9
2019-04-20T10:20:33.086Z,34.9
2019-04-20T10:21:30.216Z,34.1
2019-04-20T10:22:30.961Z,34.8
2019-04-20T10:23:32.509Z,34.9
2019-04-20T10:24:32.777Z,34.8
2019-04-20T10:25:33.023Z,35.1
2019-04-20T10:26:34.427Z,35.3
2019-04-20T10:27:34.749Z,34.9
2019-04-20T10:28:35.126Z,35.3
2019-04-20T10:29:35.830Z,35.7
2019-04-20T10:30:36.768Z,35.1
2019-04-20T10:31:42.656Z,34.7
2019-04-20T10:32:42.614Z,34.7
2019-04-20T10:33:39.623Z,35.0
2019-04-20T10:34:39.333Z,35.0
2019-04-20T10:35:41.301Z,34.7
2019-04-20T10:36:41.729Z,33.8
2019-04-20T10:37:41.838Z,34.5
2019-04-20T10:38:42.378Z,34.8
2019-04-20T10:39:42.843Z,33.6
2019-04-20T10:40:56.123Z,33.6
2019-04-20T10:41:50.295Z,33.1
2019-04-20T10:42:46.087Z,33.8
2019-04-20T10:43:46.890Z,33.7
2019-04-20T10:44:48.045Z,33.2
2019-04-20T10:45:47.044Z,32.0
2019-04-20T10:46:49.048Z,31.8
2019-04-20T10:47:48.450Z,32.1
2019-04-20T10:48:51.677Z,32.1
2019-04-20T10:49:50.898Z,31.7
2019-04-20T10:50:50.562Z,31.9
2019-04-20T10:51:51.680Z,31.7
2019-04-20T10:52:52.042Z,31.7
2019-04-20T10:53:54.050Z,30.7
2019-04-20T10:54:54.402Z,30.4
2019-04-20T10:55:54.051Z,30.4
2019-04-20T10:56:55.443Z,30.0
2019-04-20T10:57:55.644Z,30.0
2019-04-20T10:58:56.153Z,29.3
2019-04-20T10:59:57.541Z,29.5
2019-04-20T11:00:57.743Z,29.7
2019-04-20T11:01:58.254Z,29.9
2019-04-20T11:02:59.654Z,29.8
2019-04-20T11:04:00.718Z,28.4
2019-04-20T11:05:00.359Z,29.1
2019-04-20T11:06:01.061Z,28.6
2019-04-20T11:07:02.834Z,29.2
2019-04-20T11:08:02.469Z,29.0
2019-04-20T11:09:04.562Z,28.6
2019-04-20T11:10:13.356Z,30.1
2019-04-20T11:11:13.013Z,30.4
2019-04-20T11:12:06.372Z,30.4
2019-04-20T11:13:07.331Z,30.8
2019-04-20T11:14:15.551Z,30.7
2019-04-20T11:15:08.408Z,28.7
2019-04-20T11:16:08.506Z,29.5
2019-04-20T11:17:08.818Z,30.2
2019-04-20T11:18:09.493Z,30.4
2019-04-20T11:19:11.513Z,30.7
2019-04-20T11:20:10.904Z,31.5
2019-04-20T11:21:11.608Z,31.1
2019-04-20T11:22:12.598Z,30.5
2019-04-20T11:23:13.982Z,30.5
2019-04-20T11:24:14.319Z,31.9
2019-04-20T11:25:14.484Z,32.0
2019-04-20T11:26:16.154Z,31.0
2019-04-20T11:27:16.305Z,31.3
2019-04-20T11:28:16.675Z,30.8
2019-04-20T11:29:18.179Z,30.6
2019-04-20T11:30:18.216Z,30.1
2019-04-20T11:31:19.924Z,30.2
2019-04-20T11:32:20.194Z,31.8
2019-04-20T11:33:20.357Z,30.6
2019-04-20T11:34:23.576Z,30.0
2019-04-20T11:35:28.042Z,30.1
2019-04-20T11:36:23.247Z,30.6
2019-04-20T11:37:22.837Z,30.1
2019-04-20T11:38:24.072Z,30.3
2019-04-20T11:39:25.026Z,31.1
2019-04-20T11:40:24.945Z,30.6
2019-04-20T11:41:29.150Z,28.3
2019-04-20T11:42:27.677Z,28.4
2019-04-20T11:43:27.055Z,28.8
2019-04-20T11:44:30.324Z,30.3
2019-04-20T11:45:28.791Z,30.3
2019-04-20T11:46:30.213Z,30.4
2019-04-20T11:47:29.857Z,30.5
2019-04-20T11:48:31.708Z,29.7
2019-04-20T11:49:31.391Z,28.5
2019-04-20T11:50:31.962Z,28.3
2019-04-20T11:51:33.794Z,28.9
2019-04-20T11:52:38.856Z,28.5
2019-04-20T11:53:34.261Z,28.7
2019-04-20T11:54:34.774Z,29.3
2019-04-20T11:55:36.236Z,28.6
2019-04-20T11:56:40.190Z,28.8
2019-04-20T11:57:37.589Z,28.4
2019-04-20T11:58:38.734Z,28.2
2019-04-20T11:59:39.070Z,28.3
2019-04-20T12:00:46.963Z,28.2
2019-04-20T12:01:47.943Z,28.3
2019-04-20T12:02:44.067Z,28.8
2019-04-20T12:03:51.919Z,29.2
2019-04-20T12:04:49.205Z,28.1
2019-04-20T12:05:46.697Z,28.3
2019-04-20T12:06:43.409Z,28.2
2019-04-20T12:07:44.809Z,28.1
2019-04-20T12:08:45.468Z,28.5
2019-04-20T12:09:45.334Z,28.2
2019-04-20T12:10:49.286Z,28.6
2019-04-20T12:11:59.637Z,27.1
2019-04-20T12:12:51.819Z,28.4
2019-04-20T12:13:48.994Z,29.1
2019-04-20T12:14:48.826Z,28.7
2019-04-20T12:15:49.735Z,28.4
2019-04-20T12:16:50.235Z,28.6
2019-04-20T12:17:51.509Z,28.2
2019-04-20T12:18:52.515Z,27.6
2019-04-20T12:19:53.170Z,28.1
2019-04-20T12:20:54.700Z,28.3
2019-04-20T12:21:53.957Z,27.8
2019-04-20T12:22:54.751Z,27.5
2019-04-20T12:23:56.202Z,28.1
2019-04-20T12:24:56.274Z,27.2
2019-04-20T12:25:56.773Z,27.7
2019-04-20T12:26:58.624Z,26.5
2019-04-20T12:28:00.579Z,25.7
2019-04-20T12:28:58.881Z,27.1
2019-04-20T12:29:59.655Z,28.0
2019-04-20T12:31:06.397Z,28.0
2019-04-20T12:32:03.501Z,27.2
2019-04-20T12:33:03.507Z,28.2
2019-04-20T12:34:02.402Z,28.2
2019-04-20T12:35:04.296Z,28.5
2019-04-20T12:36:03.813Z,28.7
2019-04-20T12:37:05.028Z,27.5
2019-04-20T12:38:05.287Z,28.0
2019-04-20T12:39:06.894Z,28.1
2019-04-20T12:40:07.188Z,28.6
2019-04-20T12:41:08.370Z,26.5
2019-04-20T12:42:09.483Z,28.4
2019-04-20T12:43:09.015Z,27.9
2019-04-20T12:44:09.947Z,27.1
2019-04-20T12:45:11.367Z,27.2
2019-04-20T12:46:13.639Z,26.4
2019-04-20T12:47:12.018Z,24.9
2019-04-20T12:48:13.401Z,25.1
2019-04-20T12:49:13.677Z,25.7
2019-04-20T12:50:13.815Z,26.6
2019-04-20T12:51:15.544Z,25.8
2019-04-20T12:52:16.574Z,26.8
2019-04-20T12:53:17.063Z,27.3
2019-04-20T12:54:16.639Z,26.9
2019-04-20T12:55:17.166Z,27.4
2019-04-20T12:56:17.875Z,27.2
2019-04-20T12:57:18.668Z,26.4
2019-04-20T12:58:20.711Z,26.9
2019-04-20T12:59:21.180Z,26.1
2019-04-20T13:00:21.557Z,27.1
2019-04-20T13:01:22.868Z,26.3
2019-04-20T13:02:23.180Z,27.1
2019-04-20T13:03:23.542Z,27.8
2019-04-20T13:04:24.689Z,28.1
2019-04-20T13:05:24.364Z,27.4
2019-04-20T13:06:25.789Z,28.0
2019-04-20T13:07:26.878Z,27.8
2019-04-20T13:08:33.705Z,27.0
2019-04-20T13:09:28.298Z,26.2
2019-04-20T13:10:27.803Z,26.0
2019-04-20T13:11:28.744Z,26.3
2019-04-20T13:12:30.444Z,26.0
2019-04-20T13:13:30.449Z,25.2
2019-04-20T13:14:30.721Z,25.3
2019-04-20T13:15:32.082Z,25.5
2019-04-20T13:16:32.377Z,26.0
2019-04-20T13:17:32.735Z,25.3
2019-04-20T13:18:33.434Z,24.8
2019-04-20T13:19:35.347Z,25.8
2019-04-20T13:20:36.003Z,26.6
2019-04-20T13:21:36.730Z,26.4
2019-04-20T13:22:37.008Z,27.2
2019-04-20T13:23:37.256Z,25.1
2019-04-20T13:24:38.999Z,24.7
2019-04-20T13:25:39.244Z,26.1
2019-04-20T13:26:39.068Z,26.5
2019-04-20T13:27:40.931Z,26.3
2019-04-20T13:28:41.218Z,24.4
2019-04-20T13:29:41.205Z,24.4
2019-04-20T13:30:41.964Z,25.1
2019-04-20T13:31:42.570Z,25.2
2019-04-20T13:32:43.616Z,24.6
2019-04-20T13:33:45.227Z,24.6
2019-04-20T13:34:44.675Z,24.7
2019-04-20T13:35:46.124Z,24.6
2019-04-20T13:36:46.275Z,24.2
2019-04-20T13:37:46.925Z,24.7
2019-04-20T13:38:47.979Z,25.0
2019-04-20T13:39:48.994Z,24.7
2019-04-20T13:40:48.936Z,25.6
2019-04-20T13:41:59.770Z,27.1
2019-04-20T13:42:50.345Z,26.4
2019-04-20T13:43:51.066Z,26.3
2019-04-20T13:44:52.822Z,24.7
2019-04-20T13:45:53.126Z,25.3
2019-04-20T13:46:53.175Z,25.8
2019-04-20T13:47:55.056Z,24.9